createdAt,value
2018-12-26T00:04:24.849Z,61.70
2018-12-26T00:06:54.507Z,63.52
2018-12-26T00:09:24.951Z,61.88
2018-12-26T00:11:54.588Z,64.80
2018-12-26T00:14:24.231Z,59.77
2018-12-26T00:16:53.961Z,60.63
2018-12-26T00:19:24.169Z,60.08
2018-12-26T00:21:53.837Z,62.20
2018-12-26T00:24:23.705Z,68.30
2018-12-26T00:26:53.354Z,61.75
2018-12-26T00:29:23.076Z,60.33
2018-12-26T00:31:52.764Z,62.98
2018-12-26T00:34:23.039Z,64.75
2018-12-26T00:36:52.686Z,73.92
2018-12-26T00:39:22.417Z,66.20
2018-12-26T00:41:52.123Z,71.40
2018-12-26T00:44:21.695Z,69.30
2018-12-26T00:46:51.447Z,65.50
2018-12-26T00:49:21.141Z,74.30
2018-12-26T00:51:50.766Z,63.92
2018-12-26T00:54:20.722Z,71.87
2018-12-26T00:56:50.360Z,82.33
2018-12-26T00:59:20.722Z,71.20
2018-12-26T01:04:27.171Z,66.92
2018-12-26T01:06:56.870Z,62.67
2018-12-26T01:09:26.622Z,70.57
2018-12-26T01:11:56.428Z,69.40
2018-12-26T01:14:26.655Z,62.70
2018-12-26T01:16:56.428Z,55.25
2018-12-26T01:19:25.933Z,59.85
2018-12-26T01:21:55.660Z,59.80
2018-12-26T01:24:25.392Z,59.75
2018-12-26T01:26:55.055Z,66.67
2018-12-26T01:29:25.273Z,55.70
2018-12-26T01:31:54.750Z,55.10
2018-12-26T01:34:24.328Z,56.73
2018-12-26T01:36:54.015Z,62.43
2018-12-26T01:39:24.119Z,63.05
2018-12-26T01:41:53.764Z,64.58
2018-12-26T01:44:23.527Z,67.47
2018-12-26T01:46:53.180Z,62.67
2018-12-26T01:49:22.861Z,60.75
2018-12-26T01:51:52.537Z,60.58
2018-12-26T01:54:22.257Z,58.35
2018-12-26T01:56:51.916Z,58.13
2018-12-26T01:59:21.597Z,56.15
2018-12-26T02:04:27.083Z,58.95
2018-12-26T02:06:56.780Z,52.88
2018-12-26T02:09:26.481Z,54.95
2018-12-26T02:11:56.054Z,55.15
2018-12-26T02:14:25.758Z,50.95
2018-12-26T02:16:55.328Z,54.75
2018-12-26T02:19:25.267Z,54.70
2018-12-26T02:21:55.063Z,57.35
2018-12-26T02:24:24.994Z,50.10
2018-12-26T02:26:54.590Z,53.48
2018-12-26T02:29:24.265Z,46.35
2018-12-26T02:31:53.969Z,46.88
2018-12-26T02:34:24.316Z,43.48
2018-12-26T02:36:53.975Z,43.75
2018-12-26T02:39:23.733Z,44.15
2018-12-26T02:41:53.395Z,45.25
2018-12-26T02:44:22.960Z,42.48
2018-12-26T02:46:52.716Z,42.48
2018-12-26T02:49:22.352Z,40.92
2018-12-26T02:51:52.164Z,41.58
2018-12-26T02:54:22.126Z,40.25
2018-12-26T02:56:51.752Z,40.00
2018-12-26T02:59:21.428Z,43.30
2018-12-26T03:01:51.700Z,40.40
2018-12-26T03:04:21.519Z,40.38
2018-12-26T03:06:51.622Z,42.08
2018-12-26T03:09:21.299Z,36.93
2018-12-26T03:11:50.965Z,38.15
2018-12-26T03:14:39.596Z,46.42
2018-12-26T03:17:09.303Z,45.65
2018-12-26T03:19:39.036Z,44.70
2018-12-26T03:22:08.692Z,44.00
2018-12-26T03:24:38.249Z,39.95
2018-12-26T03:27:08.086Z,39.18
2018-12-26T03:29:37.915Z,41.05
2018-12-26T03:32:07.637Z,39.75
2018-12-26T03:34:37.231Z,39.15
2018-12-26T03:37:07.162Z,45.28
2018-12-26T03:39:36.830Z,43.17
2018-12-26T03:42:06.615Z,42.20
2018-12-26T03:44:37.162Z,42.62
2018-12-26T03:47:26.064Z,38.48
2018-12-26T03:49:55.828Z,37.88
2018-12-26T03:52:25.751Z,38.60
2018-12-26T03:54:55.432Z,35.58
2018-12-26T03:57:25.106Z,37.28
2018-12-26T03:59:54.855Z,36.03
2018-12-26T04:02:24.519Z,39.10
2018-12-26T04:05:13.208Z,36.80
2018-12-26T04:07:42.788Z,29.25
2018-12-26T04:10:12.632Z,29.48
2018-12-26T04:12:42.472Z,30.88
2018-12-26T04:15:12.221Z,28.35
2018-12-26T04:17:41.863Z,27.50
2018-12-26T04:20:12.694Z,28.02
2018-12-26T04:22:44.367Z,27.07
2018-12-26T04:25:14.269Z,25.95
2018-12-26T04:27:43.910Z,27.48
2018-12-26T04:30:13.524Z,24.82
2018-12-26T04:32:43.128Z,26.10
2018-12-26T04:35:12.943Z,26.27
2018-12-26T04:38:07.599Z,25.52
2018-12-26T04:40:56.420Z,26.25
2018-12-26T04:43:27.118Z,24.92
2018-12-26T04:45:56.760Z,24.15
2018-12-26T04:48:29.142Z,21.55
2018-12-26T04:50:58.722Z,27.60
2018-12-26T04:53:29.222Z,31.35
2018-12-26T04:55:59.058Z,26.35
2018-12-26T04:58:31.087Z,25.48
2018-12-26T05:03:37.671Z,28.62
2018-12-26T05:06:07.278Z,25.10
2018-12-26T05:08:38.471Z,22.90
2018-12-26T05:11:07.999Z,23.18
2018-12-26T05:13:37.790Z,21.35
2018-12-26T05:16:07.424Z,19.92
2018-12-26T05:18:56.583Z,22.85
2018-12-26T05:21:26.428Z,20.50
2018-12-26T05:23:56.103Z,22.37
2018-12-26T05:26:26.718Z,23.15
2018-12-26T05:28:57.121Z,18.12
2018-12-26T05:31:26.888Z,21.55
2018-12-26T05:33:56.411Z,19.30
2018-12-26T05:36:26.071Z,18.30
2018-12-26T05:38:55.623Z,18.73
2018-12-26T05:41:25.379Z,18.20
2018-12-26T05:43:55.695Z,15.40
2018-12-26T05:46:25.427Z,16.10
2018-12-26T05:48:55.189Z,14.73
2018-12-26T05:51:24.787Z,16.27
2018-12-26T05:53:55.243Z,18.05
2018-12-26T05:56:24.971Z,13.53
2018-12-26T05:58:54.763Z,12.37
2018-12-26T06:01:25.248Z,16.17
2018-12-26T06:03:54.993Z,12.80
2018-12-26T06:06:24.616Z,15.10
2018-12-26T06:08:54.408Z,20.27
2018-12-26T06:11:25.138Z,14.60
2018-12-26T06:13:55.085Z,13.58
2018-12-26T06:16:24.761Z,16.67
2018-12-26T06:18:54.526Z,16.70
2018-12-26T06:21:25.242Z,16.17
2018-12-26T06:24:13.872Z,16.25
2018-12-26T06:26:44.747Z,15.90
2018-12-26T06:29:14.322Z,16.50
2018-12-26T06:31:44.043Z,19.05
2018-12-26T06:34:13.899Z,19.10
2018-12-26T06:36:43.536Z,23.35
2018-12-26T06:39:13.141Z,21.23
2018-12-26T06:41:42.855Z,19.98
2018-12-26T06:44:12.531Z,25.05
2018-12-26T06:46:42.127Z,24.10
2018-12-26T06:49:11.856Z,22.87
2018-12-26T06:51:41.599Z,24.10
2018-12-26T06:54:13.020Z,26.02
2018-12-26T06:56:42.675Z,25.65
2018-12-26T06:59:12.986Z,28.25
2018-12-26T07:02:01.803Z,26.52
2018-12-26T07:04:32.693Z,25.48
2018-12-26T07:07:02.772Z,35.95
2018-12-26T07:09:32.372Z,32.15
2018-12-26T07:12:01.976Z,36.05
2018-12-26T07:14:32.549Z,33.42
2018-12-26T07:17:02.350Z,28.67
2018-12-26T07:19:33.391Z,32.00
2018-12-26T07:22:03.080Z,34.58
2018-12-26T07:24:33.346Z,32.88
2018-12-26T07:27:22.037Z,31.48
2018-12-26T07:29:51.826Z,26.20
2018-12-26T07:32:21.518Z,25.48
2018-12-26T07:34:51.894Z,30.82
2018-12-26T07:37:40.507Z,29.63
2018-12-26T07:40:10.241Z,29.40
2018-12-26T07:42:40.991Z,32.25
2018-12-26T07:45:10.863Z,27.10
2018-12-26T07:47:40.469Z,35.35
2018-12-26T07:50:29.116Z,32.48
2018-12-26T07:52:58.761Z,31.05
2018-12-26T07:55:28.741Z,31.30
2018-12-26T07:57:58.607Z,28.77
2018-12-26T08:00:28.236Z,26.82
2018-12-26T08:02:57.860Z,24.63
2018-12-26T08:05:28.657Z,23.77
2018-12-26T08:07:58.316Z,23.47
2018-12-26T08:10:28.106Z,24.63
2018-12-26T08:12:57.768Z,24.47
2018-12-26T08:15:27.521Z,25.12
2018-12-26T08:17:57.351Z,21.97
2018-12-26T08:20:27.206Z,22.00
2018-12-26T08:22:56.913Z,21.25
2018-12-26T08:25:26.632Z,19.12
2018-12-26T08:27:57.143Z,26.02
2018-12-26T08:30:27.087Z,17.43
2018-12-26T08:32:56.748Z,19.00
2018-12-26T08:35:26.614Z,18.27
2018-12-26T08:37:56.442Z,18.70
2018-12-26T08:40:26.219Z,15.10
2018-12-26T08:42:55.898Z,16.57
2018-12-26T08:45:25.933Z,16.33
2018-12-26T08:47:55.647Z,12.67
2018-12-26T08:50:25.275Z,12.10
2018-12-26T08:52:55.671Z,11.80
2018-12-26T08:55:25.518Z,12.20
2018-12-26T08:57:55.229Z,14.30
2018-12-26T09:00:36.747Z,12.50
2018-12-26T09:03:09.011Z,12.50
2018-12-26T09:05:38.618Z,12.23
2018-12-26T09:08:10.435Z,12.87
2018-12-26T09:10:40.120Z,10.43
2018-12-26T09:13:10.693Z,11.43
2018-12-26T09:15:40.628Z,10.70
2018-12-26T09:18:11.190Z,9.83
2018-12-26T09:20:40.823Z,10.90
2018-12-26T09:23:11.211Z,9.10
2018-12-26T09:25:43.970Z,9.67
2018-12-26T09:28:14.388Z,10.27
2018-12-26T09:30:43.973Z,12.50
2018-12-26T09:33:14.039Z,10.60
2018-12-26T09:35:43.777Z,10.60
2018-12-26T09:38:14.278Z,11.40
2018-12-26T09:40:43.981Z,10.43
2018-12-26T09:43:13.696Z,11.43
2018-12-26T09:45:44.007Z,12.03
2018-12-26T09:48:14.504Z,10.20
2018-12-26T09:50:44.067Z,18.73
2018-12-26T09:53:14.702Z,10.70
2018-12-26T09:55:45.484Z,8.57
2018-12-26T09:58:15.849Z,9.17
2018-12-26T10:03:50.986Z,10.20
2018-12-26T10:06:20.843Z,11.90
2018-12-26T10:08:50.488Z,9.63
2018-12-26T10:11:20.495Z,10.80
2018-12-26T10:13:50.915Z,13.07
2018-12-26T10:16:20.674Z,10.40
2018-12-26T10:18:50.376Z,8.97
2018-12-26T10:21:20.150Z,10.20
2018-12-26T10:23:50.744Z,9.67
2018-12-26T10:26:20.509Z,12.20
2018-12-26T10:28:50.311Z,9.13
2018-12-26T10:31:20.128Z,7.87
2018-12-26T10:33:49.859Z,11.13
2018-12-26T10:36:19.608Z,10.90
2018-12-26T10:38:49.567Z,8.43
2018-12-26T10:41:19.478Z,10.77
2018-12-26T10:43:49.160Z,10.53
2018-12-26T10:46:20.027Z,16.53
2018-12-26T10:48:49.735Z,10.40
2018-12-26T10:51:19.470Z,11.30
2018-12-26T10:53:49.409Z,11.73
2018-12-26T10:56:19.274Z,9.87
2018-12-26T10:58:50.940Z,12.07
2018-12-26T11:04:07.493Z,9.10
2018-12-26T11:06:37.408Z,10.20
2018-12-26T11:09:07.959Z,9.13
2018-12-26T11:11:37.705Z,9.90
2018-12-26T11:14:07.868Z,11.43
2018-12-26T11:16:37.878Z,10.47
2018-12-26T11:19:08.058Z,9.60
2018-12-26T11:21:37.710Z,16.03
2018-12-26T11:24:07.548Z,16.37
2018-12-26T11:26:37.354Z,19.17
2018-12-26T11:29:07.157Z,18.10
2018-12-26T11:31:36.840Z,19.90
2018-12-26T11:34:06.440Z,20.43
2018-12-26T11:36:36.592Z,26.33
2018-12-26T11:39:07.582Z,20.80
2018-12-26T11:41:37.409Z,20.57
2018-12-26T11:44:07.925Z,20.40
2018-12-26T11:46:37.904Z,21.17
2018-12-26T11:49:07.685Z,26.10
2018-12-26T11:51:37.357Z,23.60
2018-12-26T11:54:07.326Z,22.07
2018-12-26T11:56:37.021Z,22.00
2018-12-26T11:59:06.854Z,27.70
2018-12-26T12:01:48.564Z,24.67
2018-12-26T12:04:18.459Z,25.12
2018-12-26T12:06:48.397Z,28.27
2018-12-26T12:09:18.186Z,26.10
2018-12-26T12:11:47.840Z,30.30
2018-12-26T12:14:17.493Z,30.50
2018-12-26T12:16:47.167Z,29.90
2018-12-26T12:19:16.855Z,27.57
2018-12-26T12:22:05.577Z,33.03
2018-12-26T12:24:35.303Z,31.23
2018-12-26T12:27:05.257Z,29.50
2018-12-26T12:29:36.124Z,27.90
2018-12-26T12:32:06.094Z,32.58
2018-12-26T12:34:36.028Z,33.92
2018-12-26T12:37:06.237Z,28.40
2018-12-26T12:39:37.011Z,34.13
2018-12-26T12:42:06.784Z,32.58
2018-12-26T12:44:36.857Z,34.38
2018-12-26T12:47:06.580Z,33.58
2018-12-26T12:49:37.268Z,36.73
2018-12-26T12:52:07.068Z,32.00
2018-12-26T12:54:36.810Z,32.55
2018-12-26T12:57:06.863Z,36.88
2018-12-26T12:59:44.553Z,32.25
2018-12-26T13:02:19.916Z,34.98
2018-12-26T13:04:50.144Z,35.78
2018-12-26T13:07:19.911Z,34.27
2018-12-26T13:09:49.752Z,34.83
2018-12-26T13:12:20.164Z,31.37
2018-12-26T13:14:49.837Z,37.70
2018-12-26T13:17:20.331Z,35.13
2018-12-26T13:19:49.978Z,40.50
2018-12-26T13:22:20.483Z,35.15
2018-12-26T13:24:50.197Z,40.20
2018-12-26T13:27:20.075Z,33.40
2018-12-26T13:29:53.795Z,37.90
2018-12-26T13:32:21.735Z,39.33
2018-12-26T13:34:51.276Z,35.50
2018-12-26T13:37:21.141Z,40.55
2018-12-26T13:39:50.801Z,35.85
2018-12-26T13:42:21.963Z,38.23
2018-12-26T13:44:51.687Z,39.00
2018-12-26T13:47:21.670Z,42.88
2018-12-26T13:49:51.659Z,38.53
2018-12-26T13:52:21.442Z,36.10
2018-12-26T13:54:51.467Z,41.73
2018-12-26T13:57:21.363Z,39.23
2018-12-26T13:59:51.025Z,39.45
2018-12-26T14:05:08.739Z,35.95
2018-12-26T14:07:42.363Z,37.30
2018-12-26T14:10:12.163Z,39.13
2018-12-26T14:12:41.935Z,39.05
2018-12-26T14:15:11.723Z,43.85
2018-12-26T14:17:41.452Z,48.68
2018-12-26T14:20:12.177Z,39.90
2018-12-26T14:22:41.911Z,40.67
2018-12-26T14:25:12.621Z,40.08
2018-12-26T14:27:42.384Z,40.48
2018-12-26T14:30:12.124Z,42.43
2018-12-26T14:32:41.924Z,43.17
2018-12-26T14:35:11.615Z,42.75
2018-12-26T14:37:41.503Z,44.00
2018-12-26T14:40:11.240Z,42.53
2018-12-26T14:42:40.981Z,43.52
2018-12-26T14:45:10.797Z,43.25
2018-12-26T14:47:40.429Z,49.33
2018-12-26T14:50:10.232Z,49.03
2018-12-26T14:52:41.007Z,44.58
2018-12-26T14:55:10.658Z,45.00
2018-12-26T14:57:40.519Z,56.58
2018-12-26T15:00:10.251Z,51.50
2018-12-26T15:02:45.889Z,52.40
2018-12-26T15:05:15.481Z,48.17
2018-12-26T15:07:45.112Z,48.08
2018-12-26T15:10:15.893Z,49.85
2018-12-26T15:13:05.568Z,46.73
2018-12-26T15:15:35.314Z,49.33
2018-12-26T15:18:06.008Z,47.83
2018-12-26T15:20:35.818Z,44.15
2018-12-26T15:23:07.235Z,46.70
2018-12-26T15:25:36.988Z,52.60
2018-12-26T15:28:08.506Z,49.20
2018-12-26T15:30:38.281Z,52.20
2018-12-26T15:33:10.004Z,52.98
2018-12-26T15:35:39.751Z,65.55
2018-12-26T15:38:10.020Z,55.58
2018-12-26T15:40:39.813Z,53.90
2018-12-26T15:43:11.396Z,52.43
2018-12-26T15:45:41.246Z,51.63
2018-12-26T15:48:11.805Z,58.73
2018-12-26T15:50:41.436Z,52.58
2018-12-26T15:53:11.975Z,54.65
2018-12-26T15:55:41.866Z,58.63
2018-12-26T15:58:12.435Z,59.38
2018-12-26T16:00:42.100Z,56.33
2018-12-26T16:03:12.018Z,54.53
2018-12-26T16:05:41.737Z,53.10
2018-12-26T16:08:12.292Z,56.95
2018-12-26T16:11:01.094Z,53.23
2018-12-26T16:13:31.942Z,56.48
2018-12-26T16:16:02.609Z,59.90
2018-12-26T16:18:33.032Z,64.42
2018-12-26T16:21:02.805Z,69.72
2018-12-26T16:23:33.166Z,65.65
2018-12-26T16:26:03.060Z,65.55
2018-12-26T16:28:32.633Z,63.45
2018-12-26T16:31:02.341Z,67.53
2018-12-26T16:33:32.924Z,67.87
2018-12-26T16:36:02.816Z,65.45
2018-12-26T16:38:32.648Z,68.47
2018-12-26T16:41:02.442Z,57.73
2018-12-26T16:43:32.863Z,62.03
2018-12-26T16:46:02.436Z,65.67
2018-12-26T16:48:32.874Z,54.77
2018-12-26T16:51:02.540Z,67.35
2018-12-26T16:53:33.029Z,70.45
2018-12-26T16:56:02.885Z,65.37
2018-12-26T16:58:32.524Z,66.75
2018-12-26T17:03:39.873Z,63.10
2018-12-26T17:06:09.754Z,63.28
2018-12-26T17:08:39.851Z,57.55
2018-12-26T17:11:10.301Z,71.95
2018-12-26T17:13:40.763Z,65.32
2018-12-26T17:16:10.563Z,66.75
2018-12-26T17:18:41.035Z,75.37
2018-12-26T17:21:10.740Z,71.22
2018-12-26T17:23:40.390Z,82.95
2018-12-26T17:26:10.196Z,74.37
2018-12-26T17:28:40.133Z,72.20
2018-12-26T17:31:09.664Z,70.37
2018-12-26T17:33:39.692Z,83.10
2018-12-26T17:36:09.611Z,71.22
2018-12-26T17:38:40.256Z,72.08
2018-12-26T17:41:09.949Z,84.40
2018-12-26T17:43:39.785Z,85.85
2018-12-26T17:46:09.477Z,88.87
2018-12-26T17:48:40.220Z,96.30
2018-12-26T17:51:14.275Z,89.30
2018-12-26T17:54:15.442Z,94.87
2018-12-26T17:56:56.515Z,104.85
2018-12-26T17:59:46.395Z,96.92
2018-12-26T18:02:21.824Z,109.63
2018-12-26T18:04:51.619Z,119.42
2018-12-26T18:07:21.391Z,105.78
2018-12-26T18:09:51.198Z,133.45
2018-12-26T18:12:21.198Z,120.95
2018-12-26T18:14:51.101Z,103.35
2018-12-26T18:17:20.934Z,96.75
2018-12-26T18:19:50.927Z,110.35
2018-12-26T18:22:20.688Z,105.78
2018-12-26T18:24:50.701Z,94.07
2018-12-26T18:27:21.079Z,112.03
2018-12-26T18:30:10.618Z,111.60
2018-12-26T18:32:40.395Z,105.95
2018-12-26T18:35:10.714Z,109.37
2018-12-26T18:37:40.653Z,111.85
2018-12-26T18:40:10.497Z,88.87
2018-12-26T18:42:40.105Z,97.27
2018-12-26T18:45:10.196Z,90.67
2018-12-26T18:47:39.993Z,101.72
2018-12-26T18:50:11.310Z,103.87
2018-12-26T18:52:41.035Z,102.05
2018-12-26T18:55:10.814Z,118.17
2018-12-26T18:57:40.664Z,113.37
2018-12-26T19:02:47.841Z,112.90
2018-12-26T19:05:17.748Z,109.83
2018-12-26T19:07:47.863Z,108.20
2018-12-26T19:10:17.997Z,125.70
2018-12-26T19:12:48.326Z,95.25
2018-12-26T19:15:18.238Z,114.55
2018-12-26T19:17:50.014Z,133.65
2018-12-26T19:20:19.763Z,137.35
2018-12-26T19:22:49.519Z,135.43
2018-12-26T19:25:19.732Z,113.50
2018-12-26T19:27:49.444Z,102.87
2018-12-26T19:30:19.345Z,76.15
2018-12-26T19:32:49.230Z,121.28
2018-12-26T19:35:19.024Z,115.40
2018-12-26T19:37:49.062Z,194.75
2018-12-26T19:40:18.812Z,94.37
2018-12-26T19:42:48.880Z,84.15
2018-12-26T19:45:19.388Z,98.50
2018-12-26T19:47:49.342Z,128.35
2018-12-26T19:50:19.138Z,194.45
2018-12-26T19:52:48.775Z,75.90
2018-12-26T19:55:19.177Z,203.60
2018-12-26T19:57:48.977Z,162.88
2018-12-26T20:00:19.234Z,91.82
2018-12-26T20:02:51.821Z,92.05
2018-12-26T20:05:21.843Z,75.57
2018-12-26T20:07:51.658Z,68.65
2018-12-26T20:10:21.576Z,83.52
2018-12-26T20:12:51.553Z,98.07
2018-12-26T20:15:21.392Z,72.70
2018-12-26T20:17:52.239Z,90.50
2018-12-26T20:20:22.775Z,90.87
2018-12-26T20:22:52.572Z,68.57
2018-12-26T20:25:22.386Z,65.67
2018-12-26T20:27:52.321Z,75.25
2018-12-26T20:30:23.035Z,74.00
2018-12-26T20:32:52.685Z,63.78
2018-12-26T20:35:22.476Z,80.80
2018-12-26T20:37:52.324Z,61.28
2018-12-26T20:40:21.979Z,86.80
2018-12-26T20:42:51.934Z,70.92
2018-12-26T20:45:21.840Z,58.10
2018-12-26T20:47:51.608Z,86.35
2018-12-26T20:50:21.643Z,82.53
2018-12-26T20:52:51.446Z,70.40
2018-12-26T20:55:21.276Z,59.85
2018-12-26T20:57:51.153Z,60.28
2018-12-26T21:00:20.850Z,56.95
2018-12-26T21:02:50.603Z,55.55
2018-12-26T21:05:22.322Z,56.05
2018-12-26T21:07:52.203Z,48.63
2018-12-26T21:10:22.052Z,56.10
2018-12-26T21:12:52.152Z,53.42
2018-12-26T21:15:22.904Z,46.58
2018-12-26T21:17:52.945Z,49.80
2018-12-26T21:20:22.783Z,50.28
2018-12-26T21:22:52.853Z,59.33
2018-12-26T21:25:23.446Z,56.23
2018-12-26T21:27:53.194Z,60.08
2018-12-26T21:30:22.896Z,61.30
2018-12-26T21:32:52.805Z,59.65
2018-12-26T21:35:22.684Z,57.53
2018-12-26T21:37:52.612Z,59.80
2018-12-26T21:40:22.306Z,63.17
2018-12-26T21:43:11.030Z,57.78
2018-12-26T21:45:40.605Z,63.30
2018-12-26T21:48:11.436Z,57.78
2018-12-26T21:50:41.425Z,55.80
2018-12-26T21:53:12.238Z,70.32
2018-12-26T21:55:41.905Z,85.62
2018-12-26T21:58:18.373Z,98.80
2018-12-26T22:03:24.359Z,67.82
2018-12-26T22:05:54.227Z,149.10
2018-12-26T22:08:24.788Z,135.32
2018-12-26T22:10:54.697Z,388.90
2018-12-26T22:13:25.174Z,102.38
2018-12-26T22:15:54.984Z,85.20
2018-12-26T22:18:25.267Z,103.72
2018-12-26T22:20:55.038Z,82.40
2018-12-26T22:23:25.403Z,138.62
2018-12-26T22:25:55.006Z,128.32
2018-12-26T22:28:24.798Z,173.07
2018-12-26T22:30:54.596Z,164.45
2018-12-26T22:33:24.995Z,131.78
2018-12-26T22:35:54.606Z,113.55
2018-12-26T22:38:28.099Z,111.40
2018-12-26T22:40:57.740Z,86.82
2018-12-26T22:43:29.099Z,180.30
2018-12-26T22:45:58.773Z,92.78
2018-12-26T22:48:30.780Z,182.15
2018-12-26T22:51:00.550Z,81.92
2018-12-26T22:53:30.529Z,105.20
2018-12-26T22:56:00.196Z,88.30
2018-12-26T22:58:33.954Z,88.35
2018-12-26T23:01:22.699Z,73.52
2018-12-26T23:04:11.775Z,89.40
2018-12-26T23:06:53.669Z,87.53
2018-12-26T23:09:25.199Z,85.17
2018-12-26T23:11:55.171Z,71.82
2018-12-26T23:14:29.134Z,73.62
2018-12-26T23:16:58.934Z,77.00
2018-12-26T23:19:29.058Z,63.80
2018-12-26T23:21:58.889Z,67.05
2018-12-26T23:24:30.331Z,62.60
2018-12-26T23:27:00.120Z,65.30
2018-12-26T23:29:30.562Z,68.92
2018-12-26T23:32:01.486Z,67.80
2018-12-26T23:34:32.474Z,65.67
2018-12-26T23:39:37.497Z,67.75
2018-12-26T23:42:07.362Z,66.10
2018-12-26T23:44:37.465Z,72.22
2018-12-26T23:47:07.187Z,69.90
2018-12-26T23:49:37.155Z,74.95
2018-12-26T23:52:07.272Z,75.47
2018-12-26T23:54:37.020Z,76.15
2018-12-26T23:57:07.062Z,77.75
2018-12-26T23:59:36.746Z,83.12
